createdAt,value
2023-03-02T00:00:42.184Z,1.83
2023-03-02T00:03:10.459Z,1.38
2023-03-02T00:05:41.061Z,1.27
2023-03-02T00:10:36.189Z,1.50
2023-03-02T00:13:03.367Z,1.40
2023-03-02T00:15:29.935Z,1.67
2023-03-02T00:17:56.482Z,1.58
2023-03-02T00:20:23.019Z,1.08
2023-03-02T00:22:50.008Z,1.38
2023-03-02T00:25:17.503Z,1.58
2023-03-02T00:27:44.756Z,1.60
2023-03-02T00:30:12.886Z,1.52
2023-03-02T00:32:40.337Z,1.40
2023-03-02T00:35:07.503Z,1.45
2023-03-02T00:37:36.839Z,2.33
2023-03-02T00:40:06.677Z,1.40
2023-03-02T00:42:34.068Z,1.63
2023-03-02T00:45:01.596Z,1.48
2023-03-02T00:47:33.844Z,1.85
2023-03-02T00:50:00.897Z,1.40
2023-03-02T00:52:29.484Z,1.13
2023-03-02T00:54:55.993Z,1.20
2023-03-02T00:57:22.888Z,1.63
2023-03-02T00:59:49.433Z,1.50
2023-03-02T01:02:15.941Z,1.42
2023-03-02T01:04:43.738Z,1.70
2023-03-02T01:07:12.723Z,1.50
2023-03-02T01:09:41.333Z,1.60
2023-03-02T01:12:11.001Z,1.67
2023-03-02T01:14:40.060Z,1.70
2023-03-02T01:17:07.647Z,1.35
2023-03-02T01:19:34.157Z,1.58
2023-03-02T01:22:00.741Z,1.33
2023-03-02T01:24:27.314Z,1.25
2023-03-02T01:26:53.995Z,2.10
2023-03-02T01:29:20.708Z,2.10
2023-03-02T01:31:47.471Z,1.38
2023-03-02T01:34:14.065Z,1.40
2023-03-02T01:36:40.574Z,1.52
2023-03-02T01:39:07.076Z,1.63
2023-03-02T01:41:33.603Z,1.45
2023-03-02T01:44:00.169Z,1.60
2023-03-02T01:46:30.469Z,1.48
2023-03-02T01:51:27.498Z,1.30
2023-03-02T01:53:59.101Z,1.50
2023-03-02T01:56:34.810Z,1.60
2023-03-02T01:59:06.510Z,1.60
2023-03-02T02:01:35.868Z,1.13
2023-03-02T02:04:02.902Z,1.10
2023-03-02T02:06:37.449Z,1.50
2023-03-02T02:09:08.345Z,1.50
2023-03-02T02:11:35.166Z,1.50
2023-03-02T02:14:03.270Z,1.50
2023-03-02T02:16:34.336Z,1.45
2023-03-02T02:19:02.281Z,1.88
2023-03-02T02:21:29.495Z,1.50
2023-03-02T02:24:12.015Z,2.30
2023-03-02T02:26:54.482Z,1.50
2023-03-02T02:29:26.155Z,1.70
2023-03-02T02:32:12.206Z,1.17
2023-03-02T02:34:50.973Z,1.48
2023-03-02T02:37:23.926Z,1.50
2023-03-02T02:39:51.676Z,1.55
2023-03-02T02:42:27.371Z,1.15
2023-03-02T02:44:57.864Z,1.40
2023-03-02T02:47:24.934Z,1.20
2023-03-02T02:49:53.927Z,1.10
2023-03-02T02:52:23.214Z,1.40
2023-03-02T02:54:52.200Z,1.52
2023-03-02T02:57:20.715Z,1.40
2023-03-02T02:59:50.834Z,1.63
2023-03-02T03:02:21.786Z,1.20
2023-03-02T03:04:48.570Z,1.30
2023-03-02T03:07:25.368Z,1.85
2023-03-02T03:10:02.070Z,1.50
2023-03-02T03:12:31.930Z,1.15
2023-03-02T03:15:00.111Z,1.65
2023-03-02T03:17:27.017Z,1.50
2023-03-02T03:19:53.535Z,1.55
2023-03-02T03:22:20.118Z,1.42
2023-03-02T03:24:46.718Z,2.50
2023-03-02T03:27:15.758Z,1.60
2023-03-02T03:29:44.994Z,1.50
2023-03-02T03:32:11.596Z,2.22
2023-03-02T03:34:40.877Z,1.65
2023-03-02T03:37:13.894Z,1.80
2023-03-02T03:39:40.964Z,1.70
2023-03-02T03:42:07.690Z,1.48
2023-03-02T03:44:34.529Z,1.63
2023-03-02T03:47:01.063Z,1.80
2023-03-02T03:49:27.654Z,1.70
2023-03-02T03:51:54.329Z,1.20
2023-03-02T03:54:20.879Z,1.70
2023-03-02T03:56:49.964Z,1.50
2023-03-02T03:59:20.275Z,1.50
2023-03-02T04:01:49.704Z,1.60
2023-03-02T04:04:20.779Z,1.55
2023-03-02T04:06:47.447Z,1.60
2023-03-02T04:09:15.437Z,1.63
2023-03-02T04:11:43.663Z,1.85
2023-03-02T04:14:11.238Z,1.70
2023-03-02T04:16:38.959Z,1.80
2023-03-02T04:19:09.671Z,1.60
2023-03-02T04:21:41.756Z,1.55
2023-03-02T04:24:09.245Z,1.80
2023-03-02T04:26:37.318Z,1.83
2023-03-02T04:29:04.873Z,1.65
2023-03-02T04:31:31.597Z,1.90
2023-03-02T04:33:58.839Z,2.00
2023-03-02T04:36:26.744Z,1.98
2023-03-02T04:38:53.433Z,1.90
2023-03-02T04:41:19.943Z,1.75
2023-03-02T04:43:46.544Z,1.98
2023-03-02T04:46:19.525Z,1.90
2023-03-02T04:48:46.071Z,1.92
2023-03-02T04:51:24.101Z,1.90
2023-03-02T04:53:56.606Z,2.03
2023-03-02T04:56:23.306Z,1.90
2023-03-02T04:58:50.334Z,1.98
2023-03-02T05:01:18.620Z,1.80
2023-03-02T05:03:46.031Z,1.90
2023-03-02T05:06:12.656Z,1.88
2023-03-02T05:08:39.675Z,1.40
2023-03-02T05:11:07.880Z,1.77
2023-03-02T05:13:35.728Z,1.83
2023-03-02T05:16:02.619Z,2.20
2023-03-02T05:18:29.438Z,1.83
2023-03-02T05:20:56.078Z,2.28
2023-03-02T05:23:27.559Z,1.77
2023-03-02T05:25:55.879Z,1.98
2023-03-02T05:28:24.381Z,1.80
2023-03-02T05:30:51.558Z,1.90
2023-03-02T05:33:19.236Z,1.90
2023-03-02T05:35:46.595Z,1.85
2023-03-02T05:38:13.577Z,2.05
2023-03-02T05:40:42.619Z,2.72
2023-03-02T05:43:10.766Z,12.95
2023-03-02T05:45:38.778Z,2.45
2023-03-02T05:48:06.211Z,2.22
2023-03-02T05:50:33.501Z,1.88
2023-03-02T05:53:02.432Z,1.70
2023-03-02T05:55:29.741Z,1.80
2023-03-02T05:57:56.968Z,1.73
2023-03-02T06:00:23.890Z,2.22
2023-03-02T06:02:50.453Z,1.73
2023-03-02T06:05:19.427Z,1.67
2023-03-02T06:07:46.353Z,2.00
2023-03-02T06:10:13.983Z,1.70
2023-03-02T06:12:40.801Z,1.63
2023-03-02T06:15:07.959Z,1.95
2023-03-02T06:17:35.127Z,1.80
2023-03-02T06:20:02.086Z,1.58
2023-03-02T06:22:28.578Z,1.88
2023-03-02T06:24:57.885Z,1.88
2023-03-02T06:27:24.424Z,1.90
2023-03-02T06:29:51.002Z,2.05
2023-03-02T06:32:17.709Z,1.77
2023-03-02T06:34:44.348Z,1.85
2023-03-02T06:37:11.153Z,1.90
2023-03-02T06:39:37.807Z,1.60
2023-03-02T06:42:04.430Z,1.80
2023-03-02T06:44:31.026Z,1.85
2023-03-02T06:46:57.553Z,1.95
2023-03-02T06:49:24.891Z,2.25
2023-03-02T06:51:51.580Z,1.80
2023-03-02T06:54:18.264Z,2.70
2023-03-02T06:56:44.824Z,1.70
2023-03-02T06:59:11.336Z,1.90
2023-03-02T07:01:37.874Z,1.33
2023-03-02T07:04:04.512Z,1.70
2023-03-02T07:06:31.235Z,1.48
2023-03-02T07:08:57.708Z,1.40
2023-03-02T07:11:24.203Z,1.75
2023-03-02T07:13:51.412Z,1.70
2023-03-02T07:16:18.055Z,1.65
2023-03-02T07:18:44.654Z,1.13
2023-03-02T07:21:11.242Z,1.80
2023-03-02T07:23:37.838Z,1.63
2023-03-02T07:26:08.457Z,1.58
2023-03-02T07:28:40.170Z,1.70
2023-03-02T07:31:07.673Z,1.80
2023-03-02T07:33:34.678Z,1.63
2023-03-02T07:36:01.506Z,1.80
2023-03-02T07:38:28.420Z,1.85
2023-03-02T07:40:55.383Z,1.73
2023-03-02T07:43:24.096Z,1.60
2023-03-02T07:45:50.655Z,1.65
2023-03-02T07:48:18.067Z,1.70
2023-03-02T07:50:44.638Z,1.80
2023-03-02T07:53:11.197Z,1.75
2023-03-02T07:55:41.231Z,1.67
2023-03-02T07:58:08.096Z,1.60
2023-03-02T08:00:36.746Z,2.13
2023-03-02T08:03:03.401Z,3.25
2023-03-02T08:05:30.961Z,1.70
2023-03-02T08:07:57.682Z,1.70
2023-03-02T08:10:24.224Z,4.80
2023-03-02T08:12:50.813Z,2.47
2023-03-02T08:15:17.468Z,1.70
2023-03-02T08:17:44.942Z,1.88
2023-03-02T08:20:12.273Z,3.45
2023-03-02T08:22:38.885Z,2.25
2023-03-02T08:25:07.404Z,2.80
2023-03-02T08:27:33.984Z,1.70
2023-03-02T08:30:00.612Z,1.80
2023-03-02T08:32:27.420Z,1.85
2023-03-02T08:34:54.088Z,1.77
2023-03-02T08:37:20.632Z,1.60
2023-03-02T08:39:47.302Z,2.75
2023-03-02T08:42:13.933Z,2.55
2023-03-02T08:44:40.592Z,2.05
2023-03-02T08:47:07.103Z,1.88
2023-03-02T08:49:33.652Z,2.03
2023-03-02T08:52:00.697Z,2.05
2023-03-02T08:54:27.329Z,2.40
2023-03-02T08:56:53.839Z,3.05
2023-03-02T08:59:21.669Z,1.70
2023-03-02T09:01:48.361Z,1.80
2023-03-02T09:04:15.056Z,1.85
2023-03-02T09:06:43.432Z,1.88
2023-03-02T09:09:15.242Z,3.30
2023-03-02T09:11:42.412Z,2.28
2023-03-02T09:14:09.659Z,1.88
2023-03-02T09:16:36.256Z,1.73
2023-03-02T09:19:02.980Z,2.03
2023-03-02T09:21:29.615Z,2.08
2023-03-02T09:23:58.083Z,1.95
2023-03-02T09:26:26.726Z,1.83
2023-03-02T09:28:53.534Z,2.20
2023-03-02T09:31:20.345Z,2.28
2023-03-02T09:33:46.956Z,2.83
2023-03-02T09:36:19.606Z,2.28
2023-03-02T09:38:46.473Z,1.83
2023-03-02T09:41:19.386Z,1.98
2023-03-02T09:44:10.594Z,2.28
2023-03-02T09:47:02.305Z,2.60
2023-03-02T09:49:55.284Z,1.92
2023-03-02T09:52:36.838Z,2.03
2023-03-02T09:55:16.770Z,1.70
2023-03-02T09:57:44.181Z,1.90
2023-03-02T10:00:27.450Z,2.13
2023-03-02T10:03:16.267Z,1.70
2023-03-02T10:05:49.315Z,2.30
2023-03-02T10:08:37.545Z,2.10
2023-03-02T10:11:22.377Z,2.67
2023-03-02T10:13:59.593Z,3.03
2023-03-02T10:16:48.665Z,2.63
2023-03-02T10:19:25.247Z,6.57
2023-03-02T10:22:03.353Z,5.80
2023-03-02T10:24:39.571Z,3.85
2023-03-02T10:27:26.431Z,5.90
2023-03-02T10:30:06.501Z,10.95
2023-03-02T10:32:37.805Z,18.40
2023-03-02T10:35:16.380Z,18.13
2023-03-02T10:37:43.000Z,12.48
2023-03-02T10:40:56.987Z,12.40
2023-03-02T10:43:31.732Z,10.65
2023-03-02T10:46:03.725Z,12.25
2023-03-02T10:48:30.748Z,8.95
2023-03-02T10:50:59.077Z,10.52
2023-03-02T10:53:26.016Z,9.95
2023-03-02T10:55:53.905Z,12.65
2023-03-02T10:58:29.413Z,9.73
2023-03-02T11:00:58.451Z,8.70
2023-03-02T11:03:25.433Z,7.95
2023-03-02T11:05:52.296Z,6.18
2023-03-02T11:08:22.710Z,5.63
2023-03-02T11:13:39.008Z,6.00
2023-03-02T11:16:28.444Z,5.82
2023-03-02T11:19:00.321Z,7.10
2023-03-02T11:21:57.031Z,7.88
2023-03-02T11:24:33.591Z,5.20
2023-03-02T11:27:06.065Z,3.47
2023-03-02T11:29:47.521Z,5.25
2023-03-02T11:32:32.158Z,4.72
2023-03-02T11:35:04.728Z,4.97
2023-03-02T11:37:45.170Z,3.78
2023-03-02T11:40:26.510Z,3.55
2023-03-02T11:42:58.343Z,5.07
2023-03-02T11:45:46.565Z,4.18
2023-03-02T11:48:27.155Z,3.35
2023-03-02T11:53:27.357Z,3.03
2023-03-02T11:55:53.977Z,2.38
2023-03-02T11:58:24.650Z,3.63
2023-03-02T12:00:52.172Z,3.97
2023-03-02T12:03:32.048Z,2.38
2023-03-02T12:06:00.908Z,2.28
2023-03-02T12:08:27.436Z,2.97
2023-03-02T12:11:05.780Z,3.80
2023-03-02T12:13:32.279Z,3.05
2023-03-02T12:15:58.993Z,3.03
2023-03-02T12:18:25.580Z,3.05
2023-03-02T12:21:18.538Z,3.33
2023-03-02T12:23:51.067Z,3.80
2023-03-02T12:26:20.673Z,2.47
2023-03-02T12:29:11.652Z,5.07
2023-03-02T12:31:46.301Z,2.92
2023-03-02T12:34:25.192Z,2.55
2023-03-02T12:36:59.678Z,4.07
2023-03-02T12:39:40.567Z,4.00
2023-03-02T12:42:31.959Z,4.47
2023-03-02T12:45:23.243Z,3.97
2023-03-02T12:47:57.038Z,2.42
2023-03-02T12:50:27.733Z,3.63
2023-03-02T12:53:03.214Z,3.08
2023-03-02T12:55:30.392Z,3.25
2023-03-02T12:58:01.250Z,2.30
2023-03-02T13:00:31.723Z,2.28
2023-03-02T13:05:29.209Z,2.38
2023-03-02T13:08:04.954Z,1.98
2023-03-02T13:10:36.153Z,3.38
2023-03-02T13:13:14.479Z,2.50
2023-03-02T13:15:53.787Z,2.72
2023-03-02T13:18:25.702Z,2.35
2023-03-02T13:20:52.968Z,2.28
2023-03-02T13:23:20.174Z,3.63
2023-03-02T13:26:16.793Z,4.13
2023-03-02T13:28:43.386Z,2.58
2023-03-02T13:31:23.374Z,2.25
2023-03-02T13:33:52.409Z,2.05
2023-03-02T13:36:26.045Z,2.20
2023-03-02T13:38:56.137Z,2.03
2023-03-02T13:41:34.639Z,2.70
2023-03-02T13:44:19.834Z,2.67
2023-03-02T13:46:47.615Z,3.63
2023-03-02T13:49:14.271Z,3.05
2023-03-02T13:51:47.287Z,2.05
2023-03-02T13:54:22.540Z,1.80
2023-03-02T13:56:51.196Z,2.38
2023-03-02T13:59:19.380Z,2.05
2023-03-02T14:01:46.326Z,2.35
2023-03-02T14:04:14.810Z,3.00
2023-03-02T14:06:41.416Z,2.45
2023-03-02T14:09:08.032Z,2.33
2023-03-02T14:11:41.652Z,1.92
2023-03-02T14:14:12.404Z,2.00
2023-03-02T14:16:38.904Z,2.28
2023-03-02T14:19:05.443Z,2.90
2023-03-02T14:21:32.388Z,2.85
2023-03-02T14:23:59.224Z,2.00
2023-03-02T14:26:38.317Z,2.22
2023-03-02T14:29:22.472Z,2.70
2023-03-02T14:31:49.362Z,3.65
2023-03-02T14:34:17.465Z,2.00
2023-03-02T14:36:46.781Z,2.30
2023-03-02T14:39:37.546Z,2.50
2023-03-02T14:42:05.589Z,2.75
2023-03-02T14:44:32.642Z,2.25
2023-03-02T14:46:59.144Z,2.08
2023-03-02T14:49:25.734Z,1.90
2023-03-02T14:51:59.058Z,2.65
2023-03-02T14:54:26.528Z,2.60
2023-03-02T14:56:53.397Z,2.80
2023-03-02T14:59:19.966Z,3.10
2023-03-02T15:01:46.580Z,2.30
2023-03-02T15:04:13.151Z,2.75
2023-03-02T15:06:43.079Z,1.95
2023-03-02T15:09:11.095Z,2.35
2023-03-02T15:11:37.780Z,2.28
2023-03-02T15:14:04.354Z,2.05
2023-03-02T15:16:30.996Z,3.10
2023-03-02T15:18:58.903Z,2.38
2023-03-02T15:21:25.777Z,2.58
2023-03-02T15:23:52.331Z,3.22
2023-03-02T15:26:18.957Z,1.95
2023-03-02T15:28:45.715Z,2.40
2023-03-02T15:31:17.190Z,2.08
2023-03-02T15:33:45.554Z,2.58
2023-03-02T15:36:13.282Z,1.95
2023-03-02T15:38:39.957Z,2.35
2023-03-02T15:41:13.300Z,3.67
2023-03-02T15:43:39.964Z,2.70
2023-03-02T15:46:09.132Z,2.10
2023-03-02T15:48:35.855Z,2.67
2023-03-02T15:51:05.467Z,2.35
2023-03-02T15:53:36.769Z,1.97
2023-03-02T15:56:09.637Z,2.33
2023-03-02T15:58:36.743Z,3.60
2023-03-02T16:01:08.135Z,2.13
2023-03-02T16:03:34.785Z,2.00
2023-03-02T16:06:01.440Z,2.30
2023-03-02T16:08:28.047Z,2.10
2023-03-02T16:11:02.260Z,2.20
2023-03-02T16:13:30.480Z,3.47
2023-03-02T16:15:57.356Z,4.60
2023-03-02T16:18:23.986Z,3.92
2023-03-02T16:20:50.586Z,2.45
2023-03-02T16:23:17.109Z,2.85
2023-03-02T16:25:44.453Z,2.58
2023-03-02T16:28:12.064Z,2.40
2023-03-02T16:30:39.700Z,2.25
2023-03-02T16:33:09.949Z,2.63
2023-03-02T16:35:37.433Z,2.72
2023-03-02T16:38:05.718Z,2.47
2023-03-02T16:40:33.491Z,2.42
2023-03-02T16:43:00.092Z,2.30
2023-03-02T16:45:27.040Z,2.40
2023-03-02T16:47:53.921Z,2.55
2023-03-02T16:50:20.871Z,3.72
2023-03-02T16:52:47.417Z,2.50
2023-03-02T16:55:17.585Z,2.05
2023-03-02T16:57:44.587Z,3.83
2023-03-02T17:00:15.407Z,2.25
2023-03-02T17:02:42.280Z,2.30
2023-03-02T17:05:10.097Z,2.45
2023-03-02T17:07:36.687Z,3.75
2023-03-02T17:10:03.896Z,2.28
2023-03-02T17:12:30.435Z,3.15
2023-03-02T17:14:56.926Z,2.80
2023-03-02T17:17:23.471Z,3.22
2023-03-02T17:19:50.092Z,3.80
2023-03-02T17:22:17.352Z,2.55
2023-03-02T17:24:43.851Z,1.90
2023-03-02T17:27:23.781Z,2.55
2023-03-02T17:29:52.160Z,2.10
2023-03-02T17:32:19.006Z,1.90
2023-03-02T17:34:45.606Z,2.10
2023-03-02T17:37:12.136Z,2.00
2023-03-02T17:39:39.007Z,2.42
2023-03-02T17:42:06.270Z,2.17
2023-03-02T17:44:34.561Z,2.25
2023-03-02T17:47:03.953Z,2.13
2023-03-02T17:49:31.168Z,2.53
2023-03-02T17:51:57.878Z,2.28
2023-03-02T17:54:24.452Z,2.33
2023-03-02T17:56:51.025Z,2.00
2023-03-02T17:59:17.859Z,2.83
2023-03-02T18:01:44.565Z,1.98
2023-03-02T18:04:11.327Z,1.83
2023-03-02T18:06:37.908Z,2.45
2023-03-02T18:09:04.528Z,2.00
2023-03-02T18:11:31.194Z,1.65
2023-03-02T18:13:58.490Z,1.90
2023-03-02T18:16:27.966Z,2.85
2023-03-02T18:18:55.782Z,1.73
2023-03-02T18:21:22.986Z,2.22
2023-03-02T18:23:49.580Z,2.80
2023-03-02T18:26:16.631Z,1.58
2023-03-02T18:28:43.230Z,2.05
2023-03-02T18:31:13.191Z,1.80
2023-03-02T18:33:39.909Z,2.85
2023-03-02T18:36:06.730Z,1.88
2023-03-02T18:38:34.799Z,1.95
2023-03-02T18:41:03.580Z,1.77
2023-03-02T18:43:34.786Z,2.85
2023-03-02T18:46:10.430Z,1.67
2023-03-02T18:48:39.563Z,2.13
2023-03-02T18:51:06.153Z,1.70
2023-03-02T18:53:32.958Z,1.50
2023-03-02T18:55:59.517Z,1.80
2023-03-02T18:58:26.146Z,1.60
2023-03-02T19:00:54.294Z,1.90
2023-03-02T19:03:21.009Z,1.50
2023-03-02T19:05:47.573Z,1.60
2023-03-02T19:08:14.102Z,3.22
2023-03-02T19:10:42.607Z,1.40
2023-03-02T19:13:11.639Z,2.15
2023-03-02T19:15:41.845Z,2.05
2023-03-02T19:18:08.687Z,2.00
2023-03-02T19:20:35.469Z,1.70
2023-03-02T19:23:02.264Z,1.83
2023-03-02T19:25:28.862Z,1.80
2023-03-02T19:27:55.480Z,1.60
2023-03-02T19:30:25.308Z,1.92
2023-03-02T19:32:53.954Z,3.00
2023-03-02T19:35:23.188Z,1.90
2023-03-02T19:37:49.864Z,2.15
2023-03-02T19:40:18.964Z,1.80
2023-03-02T19:42:46.400Z,2.40
2023-03-02T19:45:20.947Z,1.85
2023-03-02T19:47:48.122Z,2.25
2023-03-02T19:50:17.048Z,2.03
2023-03-02T19:52:43.658Z,2.72
2023-03-02T19:55:13.055Z,2.97
2023-03-02T19:57:40.472Z,1.80
2023-03-02T20:00:14.532Z,2.10
2023-03-02T20:02:41.111Z,2.10
2023-03-02T20:05:09.132Z,1.63
2023-03-02T20:07:36.440Z,2.05
2023-03-02T20:10:04.709Z,1.80
2023-03-02T20:12:31.310Z,2.33
2023-03-02T20:14:57.893Z,2.13
2023-03-02T20:17:24.468Z,1.90
2023-03-02T20:19:51.655Z,2.75
2023-03-02T20:22:18.428Z,2.40
2023-03-02T20:24:45.025Z,2.72
2023-03-02T20:27:12.551Z,2.53
2023-03-02T20:29:41.387Z,2.10
2023-03-02T20:32:10.010Z,2.38
2023-03-02T20:34:39.383Z,2.67
2023-03-02T20:37:07.402Z,2.35
2023-03-02T20:39:37.115Z,1.80
2023-03-02T20:42:04.826Z,2.28
2023-03-02T20:44:31.470Z,2.10
2023-03-02T20:47:02.350Z,2.00
2023-03-02T20:49:30.990Z,2.45
2023-03-02T20:51:59.573Z,1.95
2023-03-02T20:54:30.833Z,2.22
2023-03-02T20:56:58.712Z,2.15
2023-03-02T20:59:26.227Z,2.10
2023-03-02T21:01:52.787Z,2.33
2023-03-02T21:04:19.693Z,2.25
2023-03-02T21:06:46.600Z,2.35
2023-03-02T21:09:14.489Z,2.45
2023-03-02T21:11:41.218Z,2.17
2023-03-02T21:14:08.033Z,2.55
2023-03-02T21:16:38.447Z,2.20
2023-03-02T21:19:08.699Z,2.85
2023-03-02T21:21:41.730Z,2.25
2023-03-02T21:24:16.868Z,3.17
2023-03-02T21:26:45.419Z,2.95
2023-03-02T21:29:13.077Z,2.30
2023-03-02T21:31:42.185Z,2.60
2023-03-02T21:34:08.745Z,2.13
2023-03-02T21:36:35.481Z,3.08
2023-03-02T21:39:02.611Z,2.35
2023-03-02T21:41:29.174Z,2.10
2023-03-02T21:43:55.787Z,2.40
2023-03-02T21:46:23.277Z,5.57
2023-03-02T21:48:51.187Z,2.17
2023-03-02T21:51:18.502Z,4.50
2023-03-02T21:53:45.037Z,2.85
2023-03-02T21:56:20.566Z,2.67
2023-03-02T21:58:55.888Z,2.40
2023-03-02T22:01:23.928Z,2.35
2023-03-02T22:03:50.523Z,2.80
2023-03-02T22:06:20.468Z,2.95
2023-03-02T22:08:47.692Z,3.97
2023-03-02T22:11:21.679Z,2.33
2023-03-02T22:13:52.597Z,2.45
2023-03-02T22:16:22.060Z,2.20
2023-03-02T22:18:53.476Z,2.42
2023-03-02T22:21:34.560Z,2.35
2023-03-02T22:24:17.536Z,2.13
2023-03-02T22:26:45.643Z,2.20
2023-03-02T22:29:16.627Z,2.63
2023-03-02T22:31:47.156Z,2.03
2023-03-02T22:36:42.360Z,2.10
2023-03-02T22:39:17.965Z,2.08
2023-03-02T22:41:44.517Z,2.22
2023-03-02T22:44:13.692Z,2.17
2023-03-02T22:46:41.281Z,2.25
2023-03-02T22:49:16.546Z,2.13
2023-03-02T22:51:44.962Z,2.45
2023-03-02T22:54:21.784Z,1.90
2023-03-02T22:56:52.351Z,2.10
2023-03-02T23:01:49.017Z,1.80
2023-03-02T23:04:45.710Z,2.10
2023-03-02T23:07:20.122Z,1.83
2023-03-02T23:09:47.756Z,1.70
2023-03-02T23:12:20.285Z,1.80
2023-03-02T23:14:51.070Z,2.05
2023-03-02T23:17:37.118Z,1.85
2023-03-02T23:20:06.539Z,1.85
2023-03-02T23:22:32.972Z,1.80
2023-03-02T23:24:59.543Z,1.73
2023-03-02T23:27:26.137Z,1.65
2023-03-02T23:29:53.094Z,1.67
2023-03-02T23:32:19.934Z,3.08
2023-03-02T23:34:46.646Z,1.58
2023-03-02T23:37:13.204Z,1.50
2023-03-02T23:39:39.731Z,1.35
2023-03-02T23:42:06.322Z,1.50
2023-03-02T23:44:32.853Z,1.55
2023-03-02T23:46:59.505Z,1.60
2023-03-02T23:49:26.054Z,2.08
2023-03-02T23:51:52.672Z,1.90
2023-03-02T23:54:19.268Z,1.70
2023-03-02T23:56:45.792Z,1.65
2023-03-02T23:59:12.339Z,1.38
